createdAt,value
2023-04-14T00:00:03.004Z,0
2023-04-14T00:05:02.942Z,0
2023-04-14T00:10:02.598Z,0
2023-04-14T00:15:03.344Z,0
2023-04-14T00:20:03.206Z,0
2023-04-14T00:25:02.937Z,0
2023-04-14T00:30:03.033Z,0
2023-04-14T00:35:02.442Z,0
2023-04-14T00:40:03.144Z,0
2023-04-14T00:45:02.995Z,0
2023-04-14T00:50:02.634Z,0
2023-04-14T00:55:04.328Z,0
2023-04-14T01:00:03.252Z,0
2023-04-14T01:05:03.242Z,0
2023-04-14T01:10:02.918Z,0
2023-04-14T01:15:02.976Z,0
2023-04-14T01:20:02.637Z,0
2023-04-14T01:25:03.360Z,0
2023-04-14T01:30:03.173Z,0
2023-04-14T01:35:02.880Z,0
2023-04-14T01:40:02.803Z,0
2023-04-14T01:45:02.455Z,0
2023-04-14T01:50:02.438Z,0
2023-04-14T01:55:03.842Z,0
2023-04-14T02:00:03.070Z,0
2023-04-14T02:05:02.755Z,0
2023-04-14T02:10:02.780Z,0
2023-04-14T02:15:03.344Z,0
2023-04-14T02:20:03.015Z,0
2023-04-14T02:25:02.725Z,0
2023-04-14T02:30:02.483Z,0
2023-04-14T02:35:03.313Z,0
2023-04-14T02:40:03.032Z,0
2023-04-14T02:45:02.942Z,0
2023-04-14T02:50:02.470Z,0
2023-04-14T02:55:04.226Z,0
2023-04-14T03:00:03.325Z,0
2023-04-14T03:05:03.137Z,0
2023-04-14T03:10:03.100Z,0
2023-04-14T03:15:02.936Z,0
2023-04-14T03:20:02.888Z,0
2023-04-14T03:25:03.131Z,0
2023-04-14T03:30:03.055Z,0
2023-04-14T03:35:02.882Z,0
2023-04-14T03:40:02.440Z,0.23
2023-04-14T03:45:03.236Z,0.79
2023-04-14T03:50:03.063Z,2.15
2023-04-14T03:55:03.756Z,4.75
2023-04-14T04:00:02.765Z,10.3
2023-04-14T04:05:03.403Z,8.33
2023-04-14T04:10:03.261Z,16.67
2023-04-14T04:15:02.708Z,30
2023-04-14T04:20:02.510Z,43.33
2023-04-14T04:25:03.425Z,60
2023-04-14T04:30:02.551Z,88.33
2023-04-14T04:35:03.276Z,131.67
2023-04-14T04:40:02.984Z,183.33
2023-04-14T04:45:02.773Z,236.67
2023-04-14T04:50:02.551Z,293.33
2023-04-14T04:55:04.076Z,331.67
2023-04-14T05:00:03.008Z,370
2023-04-14T05:05:03.199Z,535
2023-04-14T05:10:02.686Z,640
2023-04-14T05:15:02.505Z,703.33
2023-04-14T05:20:03.258Z,805
2023-04-14T05:25:02.962Z,880
2023-04-14T05:30:02.890Z,1051.67
2023-04-14T05:35:02.783Z,1378.33
2023-04-14T05:40:02.439Z,1571.67
2023-04-14T05:45:02.666Z,1615
2023-04-14T05:50:03.302Z,1728.33
2023-04-14T05:55:03.463Z,1796.67
2023-04-14T06:00:02.891Z,1871.67
2023-04-14T06:05:02.866Z,1746.67
2023-04-14T06:10:03.372Z,1731.67
2023-04-14T06:15:03.277Z,1610
2023-04-14T06:20:02.906Z,1871.67
2023-04-14T06:25:03.025Z,1893.33
2023-04-14T06:30:02.963Z,1986.67
2023-04-14T06:35:02.611Z,2245
2023-04-14T06:40:02.515Z,2478.33
2023-04-14T06:45:03.330Z,2575
2023-04-14T06:50:02.963Z,2570
2023-04-14T06:55:03.498Z,2478.33
2023-04-14T07:00:02.902Z,2566.67
2023-04-14T07:05:02.559Z,2746.67
2023-04-14T07:10:03.433Z,3146.67
2023-04-14T07:15:03.292Z,3675
2023-04-14T07:20:03.118Z,3308.33
2023-04-14T07:25:02.847Z,3665
2023-04-14T07:30:02.828Z,3068.33
2023-04-14T07:35:03.270Z,2700
2023-04-14T07:40:03.085Z,3178.33
2023-04-14T07:45:03.055Z,3661.67
2023-04-14T07:50:02.756Z,3455
2023-04-14T07:55:03.708Z,3626.67
2023-04-14T08:00:02.870Z,3490
2023-04-14T08:05:02.638Z,3365
2023-04-14T08:10:02.506Z,3905
2023-04-14T08:15:03.383Z,4148.33
2023-04-14T08:20:03.054Z,4145
2023-04-14T08:25:03.288Z,4681.67
2023-04-14T08:30:03.184Z,4766.67
2023-04-14T08:35:42.388Z,4711.67
2023-04-14T08:40:02.791Z,5430
2023-04-14T08:45:02.740Z,5525
2023-04-14T08:50:02.641Z,5433.33
2023-04-14T08:55:04.215Z,5663.33
2023-04-14T09:00:03.131Z,5611.67
2023-04-14T09:05:03.205Z,5878.33
2023-04-14T09:10:02.630Z,6443.33
2023-04-14T09:15:02.773Z,6965
2023-04-14T09:20:41.545Z,7375
2023-04-14T09:25:03.257Z,7820
2023-04-14T09:30:03.111Z,7288.33
2023-04-14T09:35:03.101Z,7311.67
2023-04-14T09:40:02.783Z,9203.33
2023-04-14T09:45:02.617Z,7365
2023-04-14T09:50:03.641Z,6686.67
2023-04-14T09:55:03.517Z,6593.33
2023-04-14T10:00:02.952Z,6756.67
2023-04-14T10:05:02.787Z,4996.67
2023-04-14T10:10:02.600Z,6345
2023-04-14T10:15:03.325Z,7953.33
2023-04-14T10:20:03.018Z,8325
2023-04-14T10:25:02.783Z,5171.67
2023-04-14T10:30:02.704Z,5843.33
2023-04-14T10:35:03.392Z,5026.67
2023-04-14T10:40:03.212Z,2025
2023-04-14T10:45:02.999Z,2738.33
2023-04-14T10:50:02.903Z,3660
2023-04-14T10:55:03.812Z,1820
2023-04-14T11:00:02.616Z,1446.67
2023-04-14T11:05:03.364Z,2168.33
2023-04-14T11:10:03.205Z,3166.67
2023-04-14T11:20:02.947Z,5568.33
2023-04-14T11:25:02.439Z,7120
2023-04-14T11:35:03.204Z,7036.67
2023-04-14T11:40:02.786Z,6918.33
2023-04-14T11:45:02.754Z,5983.33
2023-04-14T11:50:02.545Z,6145
2023-04-14T11:55:03.315Z,6525
2023-04-14T12:00:02.499Z,6455
2023-04-14T12:05:03.567Z,6381.67
2023-04-14T12:15:02.728Z,6955
2023-04-14T12:20:02.648Z,7086.67
2023-04-14T12:25:03.584Z,7450
2023-04-14T12:30:03.242Z,7405
2023-04-14T12:35:02.871Z,7026.67
2023-04-14T12:40:02.719Z,7581.67
2023-04-14T12:45:02.586Z,7773.33
2023-04-14T12:50:03.343Z,8473.33
2023-04-14T12:55:03.471Z,8241.67
2023-04-14T13:00:02.947Z,7598.33
2023-04-14T13:05:02.583Z,7755
2023-04-14T13:10:02.772Z,7703.33
2023-04-14T13:15:03.457Z,7375
2023-04-14T13:20:03.121Z,7595
2023-04-14T13:25:03.126Z,7251.67
2023-04-14T13:30:03.126Z,8238.33
2023-04-14T13:35:02.941Z,7873.33
2023-04-14T13:40:02.906Z,7748.33
2023-04-14T13:45:02.559Z,8125
2023-04-14T13:50:03.166Z,8820
2023-04-14T13:55:03.684Z,6765
2023-04-14T14:00:02.738Z,4478.33
2023-04-14T14:05:02.663Z,6878.33
2023-04-14T14:10:03.279Z,6400
2023-04-14T14:15:03.124Z,6146.67
2023-04-14T14:20:02.962Z,6455
2023-04-14T14:25:20.741Z,7533.33
2023-04-14T14:30:02.809Z,8060
2023-04-14T14:35:02.628Z,5025
2023-04-14T14:40:02.577Z,2910
2023-04-14T14:45:03.305Z,1971.67
2023-04-14T14:50:09.010Z,4315
2023-04-14T14:55:03.552Z,3911.67
2023-04-14T15:00:02.441Z,4146.67
2023-04-14T15:05:02.318Z,2573.33
2023-04-14T15:10:03.262Z,2136.67
2023-04-14T15:15:03.080Z,3146.67
2023-04-14T15:20:02.815Z,3128.33
2023-04-14T15:25:02.607Z,2706.67
2023-04-14T15:30:03.362Z,3115
2023-04-14T15:35:03.028Z,2645
2023-04-14T15:40:02.738Z,2383.33
2023-04-14T15:45:02.591Z,2193.33
2023-04-14T15:50:10.760Z,2065
2023-04-14T15:55:03.370Z,2251.67
2023-04-14T16:00:02.630Z,1808.33
2023-04-14T16:05:03.455Z,1410
2023-04-14T16:10:03.194Z,2041.67
2023-04-14T16:20:03.211Z,1513.33
2023-04-14T16:25:02.547Z,1693.33
2023-04-14T16:30:03.484Z,1388.33
2023-04-14T16:35:03.096Z,1651.67
2023-04-14T16:40:03.127Z,1486.67
2023-04-14T16:45:02.941Z,1093.33
2023-04-14T16:50:02.896Z,718.33
2023-04-14T16:55:03.445Z,348.33
2023-04-14T17:00:03.491Z,301.67
2023-04-14T17:05:03.130Z,198.33
2023-04-14T17:10:02.670Z,316.67
2023-04-14T17:15:02.519Z,300
2023-04-14T17:20:03.256Z,316.67
2023-04-14T17:25:03.004Z,223.33
2023-04-14T17:30:02.731Z,208.33
2023-04-14T17:35:02.422Z,213.33
2023-04-14T17:40:03.142Z,231.67
2023-04-14T17:50:02.747Z,213.33
2023-04-14T17:55:02.755Z,158.33
2023-04-14T18:00:03.214Z,103.33
2023-04-14T18:05:03.295Z,51.67
2023-04-14T18:10:02.871Z,28.33
2023-04-14T18:15:02.715Z,15
2023-04-14T18:20:02.453Z,5
2023-04-14T18:25:03.269Z,6.79
2023-04-14T18:30:03.119Z,2.83
2023-04-14T18:35:02.876Z,1.13
2023-04-14T18:40:02.952Z,0.34
2023-04-14T18:45:02.745Z,0.11
2023-04-14T18:50:02.617Z,0
2023-04-14T18:55:04.578Z,0
2023-04-14T19:00:03.318Z,0
2023-04-14T19:05:02.862Z,0
2023-04-14T19:10:02.426Z,0
2023-04-14T19:15:03.355Z,0
2023-04-14T19:20:02.966Z,0
2023-04-14T19:25:02.810Z,0
2023-04-14T19:30:02.941Z,0
2023-04-14T19:35:02.605Z,0
2023-04-14T19:40:03.337Z,0
2023-04-14T19:45:03.178Z,0
2023-04-14T19:50:03.052Z,0
2023-04-14T19:55:03.464Z,0
2023-04-14T20:00:02.809Z,0
2023-04-14T20:05:03.318Z,0
2023-04-14T20:15:03.144Z,0
2023-04-14T20:20:02.937Z,0
2023-04-14T20:25:02.460Z,0
2023-04-14T20:30:03.408Z,0
2023-04-14T20:35:02.902Z,0
2023-04-14T20:40:02.855Z,0
2023-04-14T20:45:03.392Z,0
2023-04-14T20:50:03.390Z,0
2023-04-14T21:00:03.087Z,0
2023-04-14T21:05:02.796Z,0
2023-04-14T21:10:02.565Z,0
2023-04-14T21:15:57.598Z,0
2023-04-14T21:20:02.554Z,0
2023-04-14T21:25:03.343Z,0
2023-04-14T21:30:02.974Z,0
2023-04-14T21:35:02.789Z,0
2023-04-14T21:40:02.716Z,0
2023-04-14T21:45:02.743Z,0
2023-04-14T21:50:03.366Z,0
2023-04-14T21:55:03.957Z,0
2023-04-14T22:00:02.860Z,0
2023-04-14T22:05:02.695Z,0
2023-04-14T22:10:02.413Z,0
2023-04-14T22:15:03.197Z,0
2023-04-14T22:20:02.904Z,0
2023-04-14T22:25:02.769Z,0
2023-04-14T22:30:02.584Z,0
2023-04-14T22:35:02.518Z,0
2023-04-14T22:40:03.305Z,0
2023-04-14T22:45:03.147Z,0
2023-04-14T22:50:02.862Z,0
2023-04-14T22:55:03.551Z,0
2023-04-14T23:00:03.391Z,0
2023-04-14T23:05:03.164Z,0
2023-04-14T23:10:03.208Z,0
2023-04-14T23:15:02.884Z,0
2023-04-14T23:20:02.585Z,0
2023-04-14T23:25:03.385Z,0
2023-04-14T23:30:02.494Z,0
2023-04-14T23:35:03.184Z,0
2023-04-14T23:40:02.952Z,0
2023-04-14T23:45:02.758Z,0
2023-04-14T23:50:02.612Z,0
2023-04-14T23:55:03.106Z,0
